Etusivu
METAR-TAF:

METAR-TAF

Lentoasemat :

Lydd, Englanti

Leveyspiiri: 50-57N, Pituuspiiri: 000-56E, korkeus merenpinnasta: 3 m

Tämänhetkinen sää

Tämä raportti tehtiin 23 minuuttia sitten, kello 15.20 UTC
Tuuli 9 kn lounaasta
Lämpötila 16°C
Kosteus 72%
Ilmanpaine 1030 hPa
Näkyvyys 10 km tai enemmän
ei pilviä alle 1500 m:ssä eikä cumulonimbus-pilviä

METAR: EGMD 201520Z 22009KT CAVOK 16/11 Q1030

Aika: 16:43 (15:43 UTC)

Sääennuste

Tämä raportti tehtiin 1 tunti ja 45 minuuttia sitten, kello 13.58 UTC
Ennuste voimassa 20. päivästä klo 15 UTC - 20. päivään klo 24 UTC
Tuuli 3 kn lännestä/lounaasta
Näkyvyys 10 km tai enemmän
ei pilviä alle 1500 m:ssä eikä cumulonimbus-pilviä
Todennäköisyys 30%
20. päivästä klo 18 UTC - 20. päivään klo 24 UTC
Näkyvyys: 8000 m

TAF: EGMD 201358Z 2015/2024 25003KT CAVOK PROB30 2018/2024 8000

Säähavainnot ja -ennusteet yli 4000 lentoasemalta (METAR- ja TAF-raportit).

Käytössä olevat sääasemat on merkitty karttaan keltaisilla ja punaisilla pisteillä.

Aseta hiiri pisteen päälle nähdäksesi sääaseman nimen.

Klikkaa sitten nähdäksesi säähavainnot ja -ennusteet.

Kartan vaihtaminen: klikkaa mustalla rastilla varustettuja vihreitä pisteitä, niin voit zoomata sisään; viivalla varustettua vihreää pistettä, niin voit zoomata ulos tai vihreitä nuolia, niin pääset viereisille kartoille.


METAR-TAF: